sensor_id;sensor_type;location;lat;lon;timestamp;pressure;altitude;pressure_sealevel;temperature;humidity
4022;BME280;2025;48.260;16.432;2023-03-01T00:01:09;100985.91;;;-3.67;75.29
4022;BME280;2025;48.260;16.432;2023-03-01T00:03:37;100981.81;;;-3.73;74.99
4022;BME280;2025;48.260;16.432;2023-03-01T00:06:05;100978.28;;;-3.70;75.35
4022;BME280;2025;48.260;16.432;2023-03-01T00:08:33;100982.53;;;-3.69;75.33
4022;BME280;2025;48.260;16.432;2023-03-01T00:11:02;100981.59;;;-3.67;75.64
4022;BME280;2025;48.260;16.432;2023-03-01T00:13:30;100987.56;;;-3.66;75.50
4022;BME280;2025;48.260;16.432;2023-03-01T00:15:57;100983.31;;;-3.67;75.64
4022;BME280;2025;48.260;16.432;2023-03-01T00:18:23;100986.00;;;-3.70;75.84
4022;BME280;2025;48.260;16.432;2023-03-01T00:20:54;100990.28;;;-3.71;76.01
4022;BME280;2025;48.260;16.432;2023-03-01T00:23:24;100987.03;;;-3.76;75.98
4022;BME280;2025;48.260;16.432;2023-03-01T00:25:54;100990.56;;;-3.80;76.21
4022;BME280;2025;48.260;16.432;2023-03-01T00:28:39;100986.56;;;-3.89;75.98
4022;BME280;2025;48.260;16.432;2023-03-01T00:31:18;100994.34;;;-3.90;76.83
4022;BME280;2025;48.260;16.432;2023-03-01T00:33:48;100986.56;;;-3.89;76.50
4022;BME280;2025;48.260;16.432;2023-03-01T00:36:36;100987.38;;;-3.87;76.49
4022;BME280;2025;48.260;16.432;2023-03-01T00:39:16;100986.56;;;-3.89;76.76
4022;BME280;2025;48.260;16.432;2023-03-01T00:41:45;100983.63;;;-3.76;76.41
4022;BME280;2025;48.260;16.432;2023-03-01T00:44:13;100978.56;;;-3.79;76.83
4022;BME280;2025;48.260;16.432;2023-03-01T00:46:40;100977.66;;;-3.78;76.55
4022;BME280;2025;48.260;16.432;2023-03-01T00:49:07;100975.09;;;-3.78;76.63
4022;BME280;2025;48.260;16.432;2023-03-01T00:51:34;100974.25;;;-3.79;76.98
4022;BME280;2025;48.260;16.432;2023-03-01T00:54:02;100970.88;;;-3.81;76.80
4022;BME280;2025;48.260;16.432;2023-03-01T00:56:29;100973.59;;;-3.86;76.64
4022;BME280;2025;48.260;16.432;2023-03-01T00:58:56;100971.16;;;-3.90;76.61
4022;BME280;2025;48.260;16.432;2023-03-01T01:01:26;100968.56;;;-3.89;76.79
4022;BME280;2025;48.260;16.432;2023-03-01T01:03:58;100960.97;;;-3.93;77.00
4022;BME280;2025;48.260;16.432;2023-03-01T01:06:27;100966.97;;;-3.93;77.16
4022;BME280;2025;48.260;16.432;2023-03-01T01:08:55;100961.97;;;-3.97;77.04
4022;BME280;2025;48.260;16.432;2023-03-01T01:11:23;100962.06;;;-4.00;77.52
4022;BME280;2025;48.260;16.432;2023-03-01T01:13:51;100964.72;;;-4.04;77.29
4022;BME280;2025;48.260;16.432;2023-03-01T01:16:19;100967.22;;;-4.00;77.44
4022;BME280;2025;48.260;16.432;2023-03-01T01:18:48;100968.91;;;-4.01;77.40
4022;BME280;2025;48.260;16.432;2023-03-01T01:21:17;100962.13;;;-4.04;77.36
4022;BME280;2025;48.260;16.432;2023-03-01T01:23:45;100960.50;;;-4.06;77.22
4022;BME280;2025;48.260;16.432;2023-03-01T01:26:14;100953.63;;;-4.06;77.68
4022;BME280;2025;48.260;16.432;2023-03-01T01:28:41;100955.28;;;-4.03;77.71
4022;BME280;2025;48.260;16.432;2023-03-01T01:31:08;100945.75;;;-4.01;78.15
4022;BME280;2025;48.260;16.432;2023-03-01T01:33:35;100944.84;;;-3.98;77.98
4022;BME280;2025;48.260;16.432;2023-03-01T01:36:05;100948.31;;;-4.01;77.87
4022;BME280;2025;48.260;16.432;2023-03-01T01:38:32;100941.47;;;-4.00;77.87
4022;BME280;2025;48.260;16.432;2023-03-01T01:40:59;100943.19;;;-4.01;77.97
4022;BME280;2025;48.260;16.432;2023-03-01T01:43:28;100942.19;;;-3.97;78.28
4022;BME280;2025;48.260;16.432;2023-03-01T01:45:56;100943.78;;;-3.93;78.81
4022;BME280;2025;48.260;16.432;2023-03-01T01:48:38;100943.50;;;-3.84;78.47
4022;BME280;2025;48.260;16.432;2023-03-01T01:51:11;100937.22;;;-3.75;78.16
4022;BME280;2025;48.260;16.432;2023-03-01T01:53:40;100935.19;;;-3.65;77.98
4022;BME280;2025;48.260;16.432;2023-03-01T01:56:08;100932.38;;;-3.57;77.77
4022;BME280;2025;48.260;16.432;2023-03-01T01:58:38;100928.66;;;-3.49;78.18
4022;BME280;2025;48.260;16.432;2023-03-01T02:01:06;100924.97;;;-3.42;78.17
4022;BME280;2025;48.260;16.432;2023-03-01T02:03:34;100931.66;;;-3.36;78.53
4022;BME280;2025;48.260;16.432;2023-03-01T02:06:18;100926.34;;;-3.31;77.63
4022;BME280;2025;48.260;16.432;2023-03-01T02:08:47;100926.94;;;-3.23;77.75
4022;BME280;2025;48.260;16.432;2023-03-01T02:11:15;100917.19;;;-3.15;77.18
4022;BME280;2025;48.260;16.432;2023-03-01T02:13:43;100925.56;;;-3.08;77.79
4022;BME280;2025;48.260;16.432;2023-03-01T02:16:13;100917.63;;;-3.02;77.82
4022;BME280;2025;48.260;16.432;2023-03-01T02:18:41;100919.91;;;-2.94;77.03
4022;BME280;2025;48.260;16.432;2023-03-01T02:21:22;100921.38;;;-2.87;77.13
4022;BME280;2025;48.260;16.432;2023-03-01T02:23:53;100921.31;;;-2.86;78.17
4022;BME280;2025;48.260;16.432;2023-03-01T02:26:26;100922.91;;;-2.82;77.39
4022;BME280;2025;48.260;16.432;2023-03-01T02:28:59;100926.44;;;-2.84;77.50
4022;BME280;2025;48.260;16.432;2023-03-01T02:31:26;100928.00;;;-2.80;77.72
4022;BME280;2025;48.260;16.432;2023-03-01T02:34:09;100926.16;;;-2.77;75.55
4022;BME280;2025;48.260;16.432;2023-03-01T02:36:39;100920.84;;;-2.72;76.47
4022;BME280;2025;48.260;16.432;2023-03-01T02:39:10;100918.97;;;-2.68;75.88
4022;BME280;2025;48.260;16.432;2023-03-01T02:41:42;100916.28;;;-2.65;76.99
4022;BME280;2025;48.260;16.432;2023-03-01T02:44:12;100919.66;;;-2.63;77.06
4022;BME280;2025;48.260;16.432;2023-03-01T02:46:44;100920.38;;;-2.60;76.42
4022;BME280;2025;48.260;16.432;2023-03-01T02:49:21;100918.41;;;-2.53;76.39
4022;BME280;2025;48.260;16.432;2023-03-01T02:52:04;100914.81;;;-2.49;76.83
4022;BME280;2025;48.260;16.432;2023-03-01T02:54:38;100907.69;;;-2.42;77.49
4022;BME280;2025;48.260;16.432;2023-03-01T02:57:06;100907.44;;;-2.36;76.43
4022;BME280;2025;48.260;16.432;2023-03-01T02:59:36;100908.22;;;-2.34;76.62
4022;BME280;2025;48.260;16.432;2023-03-01T03:02:06;100911.41;;;-2.27;76.67
4022;BME280;2025;48.260;16.432;2023-03-01T03:04:33;100905.13;;;-2.20;76.19
4022;BME280;2025;48.260;16.432;2023-03-01T03:06:59;100906.63;;;-2.15;75.29
4022;BME280;2025;48.260;16.432;2023-03-01T03:09:26;100901.16;;;-2.07;74.74
4022;BME280;2025;48.260;16.432;2023-03-01T03:11:53;100905.19;;;-2.00;74.17
4022;BME280;2025;48.260;16.432;2023-03-01T03:14:20;100892.97;;;-1.96;74.26
4022;BME280;2025;48.260;16.432;2023-03-01T03:16:50;100902.94;;;-1.87;74.20
4022;BME280;2025;48.260;16.432;2023-03-01T03:19:17;100895.97;;;-1.85;74.24
4022;BME280;2025;48.260;16.432;2023-03-01T03:21:45;100895.84;;;-1.82;74.16
4022;BME280;2025;48.260;16.432;2023-03-01T03:24:12;100896.38;;;-1.74;72.97
4022;BME280;2025;48.260;16.432;2023-03-01T03:26:39;100886.88;;;-1.73;73.25
4022;BME280;2025;48.260;16.432;2023-03-01T03:29:06;100882.44;;;-1.70;72.87
4022;BME280;2025;48.260;16.432;2023-03-01T03:31:33;100885.72;;;-1.66;72.64
4022;BME280;2025;48.260;16.432;2023-03-01T03:34:01;100882.94;;;-1.61;72.92
4022;BME280;2025;48.260;16.432;2023-03-01T03:36:28;100876.81;;;-1.59;72.88
4022;BME280;2025;48.260;16.432;2023-03-01T03:38:55;100876.72;;;-1.56;72.48
4022;BME280;2025;48.260;16.432;2023-03-01T03:41:22;100878.44;;;-1.56;72.05
4022;BME280;2025;48.260;16.432;2023-03-01T03:43:49;100883.41;;;-1.52;72.60
4022;BME280;2025;48.260;16.432;2023-03-01T03:46:15;100883.50;;;-1.53;73.33
4022;BME280;2025;48.260;16.432;2023-03-01T03:48:43;100875.59;;;-1.50;72.69
4022;BME280;2025;48.260;16.432;2023-03-01T03:51:11;100880.44;;;-1.42;72.56
4022;BME280;2025;48.260;16.432;2023-03-01T03:53:38;100889.25;;;-1.46;72.74
4022;BME280;2025;48.260;16.432;2023-03-01T03:56:06;100886.06;;;-1.33;72.07
4022;BME280;2025;48.260;16.432;2023-03-01T03:58:33;100880.88;;;-1.12;70.95
4022;BME280;2025;48.260;16.432;2023-03-01T04:01:00;100884.03;;;-1.06;71.39
4022;BME280;2025;48.260;16.432;2023-03-01T04:03:28;100883.19;;;-1.06;71.61
4022;BME280;2025;48.260;16.432;2023-03-01T04:05:57;100876.78;;;-0.97;70.45
4022;BME280;2025;48.260;16.432;2023-03-01T04:08:26;100869.63;;;-1.11;72.62
4022;BME280;2025;48.260;16.432;2023-03-01T04:10:57;100870.03;;;-1.20;72.34
4022;BME280;2025;48.260;16.432;2023-03-01T04:13:25;100872.75;;;-1.23;72.07
4022;BME280;2025;48.260;16.432;2023-03-01T04:15:53;100873.69;;;-1.26;71.88
4022;BME280;2025;48.260;16.432;2023-03-01T04:18:22;100863.88;;;-1.18;71.73
4022;BME280;2025;48.260;16.432;2023-03-01T04:20:50;100867.38;;;-1.19;72.08
4022;BME280;2025;48.260;16.432;2023-03-01T04:23:19;100873.50;;;-1.21;72.16
4022;BME280;2025;48.260;16.432;2023-03-01T04:25:49;100865.91;;;-1.24;73.16
4022;BME280;2025;48.260;16.432;2023-03-01T04:28:19;100876.22;;;-1.24;72.46
4022;BME280;2025;48.260;16.432;2023-03-01T04:30:46;100880.44;;;-1.22;72.48
4022;BME280;2025;48.260;16.432;2023-03-01T04:33:13;100872.66;;;-1.22;71.61
4022;BME280;2025;48.260;16.432;2023-03-01T04:35:40;100881.22;;;-1.20;71.76
4022;BME280;2025;48.260;16.432;2023-03-01T04:38:06;100879.97;;;-1.11;71.06
4022;BME280;2025;48.260;16.432;2023-03-01T04:40:33;100875.56;;;-1.09;71.14
4022;BME280;2025;48.260;16.432;2023-03-01T04:43:03;100879.28;;;-0.96;71.04
4022;BME280;2025;48.260;16.432;2023-03-01T04:45:32;100869.91;;;-0.98;70.58
4022;BME280;2025;48.260;16.432;2023-03-01T04:47:59;100887.13;;;-0.97;71.02
4022;BME280;2025;48.260;16.432;2023-03-01T04:50:26;100874.47;;;-1.03;71.95
4022;BME280;2025;48.260;16.432;2023-03-01T04:52:53;100882.53;;;-0.91;70.76
4022;BME280;2025;48.260;16.432;2023-03-01T04:55:24;100876.69;;;-0.96;70.37
4022;BME280;2025;48.260;16.432;2023-03-01T04:57:52;100881.31;;;-1.02;71.47
4022;BME280;2025;48.260;16.432;2023-03-01T05:00:22;100872.69;;;-1.03;71.75
4022;BME280;2025;48.260;16.432;2023-03-01T05:02:51;100883.19;;;-1.06;72.75
4022;BME280;2025;48.260;16.432;2023-03-01T05:05:21;100872.84;;;-1.06;71.06
4022;BME280;2025;48.260;16.432;2023-03-01T05:07:54;100882.28;;;-1.05;71.31
4022;BME280;2025;48.260;16.432;2023-03-01T05:10:22;100883.97;;;-1.04;71.54
4022;BME280;2025;48.260;16.432;2023-03-01T05:12:49;100883.19;;;-1.06;71.92
4022;BME280;2025;48.260;16.432;2023-03-01T05:15:17;100884.31;;;-1.12;71.10
4022;BME280;2025;48.260;16.432;2023-03-01T05:17:48;100898.31;;;-1.17;71.56
4022;BME280;2025;48.260;16.432;2023-03-01T05:20:15;100885.78;;;-1.06;71.02
4022;BME280;2025;48.260;16.432;2023-03-01T05:22:42;100889.13;;;-1.04;70.34
4022;BME280;2025;48.260;16.432;2023-03-01T05:25:09;100893.59;;;-1.08;70.57
4022;BME280;2025;48.260;16.432;2023-03-01T05:27:39;100888.41;;;-1.08;71.14
4022;BME280;2025;48.260;16.432;2023-03-01T05:30:07;100884.94;;;-1.07;71.68
4022;BME280;2025;48.260;16.432;2023-03-01T05:32:41;100886.75;;;-1.09;71.67
4022;BME280;2025;48.260;16.432;2023-03-01T05:35:12;100882.47;;;-1.10;71.60
4022;BME280;2025;48.260;16.432;2023-03-01T05:37:41;100886.22;;;-1.17;71.97
4022;BME280;2025;48.260;16.432;2023-03-01T05:40:10;100890.56;;;-1.17;71.77
4022;BME280;2025;48.260;16.432;2023-03-01T05:42:45;100897.09;;;-1.09;71.74
4022;BME280;2025;48.260;16.432;2023-03-01T05:45:13;100902.75;;;-1.00;71.06
4022;BME280;2025;48.260;16.432;2023-03-01T05:47:41;100909.47;;;-0.96;71.00
4022;BME280;2025;48.260;16.432;2023-03-01T05:50:15;100910.06;;;-0.90;71.05
4022;BME280;2025;48.260;16.432;2023-03-01T05:52:45;100909.28;;;-0.92;70.64
4022;BME280;2025;48.260;16.432;2023-03-01T05:55:14;100914.44;;;-0.92;70.65
4022;BME280;2025;48.260;16.432;2023-03-01T05:57:41;100917.94;;;-0.72;69.91
4022;BME280;2025;48.260;16.432;2023-03-01T06:00:08;100913.50;;;-0.70;70.43
4022;BME280;2025;48.260;16.432;2023-03-01T06:02:35;100912.75;;;-0.72;70.08
4022;BME280;2025;48.260;16.432;2023-03-01T06:05:03;100906.72;;;-0.73;69.92
4022;BME280;2025;48.260;16.432;2023-03-01T06:07:32;100911.97;;;-0.74;70.55
4022;BME280;2025;48.260;16.432;2023-03-01T06:10:00;100910.06;;;-0.71;69.61
4022;BME280;2025;48.260;16.432;2023-03-01T06:12:30;100911.56;;;-0.65;70.21
4022;BME280;2025;48.260;16.432;2023-03-01T06:14:57;100914.22;;;-0.48;70.04
4022;BME280;2025;48.260;16.432;2023-03-01T06:17:23;100915.97;;;-0.48;70.39
4022;BME280;2025;48.260;16.432;2023-03-01T06:19:50;100911.63;;;-0.48;68.92
4022;BME280;2025;48.260;16.432;2023-03-01T06:22:17;100913.06;;;-0.42;69.71
4022;BME280;2025;48.260;16.432;2023-03-01T06:24:45;100919.03;;;-0.40;69.71
4022;BME280;2025;48.260;16.432;2023-03-01T06:27:12;100912.13;;;-0.39;68.96
4022;BME280;2025;48.260;16.432;2023-03-01T06:29:39;100916.66;;;-0.26;67.41
4022;BME280;2025;48.260;16.432;2023-03-01T06:32:06;100916.09;;;-0.32;69.52
4022;BME280;2025;48.260;16.432;2023-03-01T06:34:34;100919.94;;;-0.22;67.31
4022;BME280;2025;48.260;16.432;2023-03-01T06:37:00;100919.31;;;-0.27;67.78
4022;BME280;2025;48.260;16.432;2023-03-01T06:39:30;100919.47;;;-0.30;67.84
4022;BME280;2025;48.260;16.432;2023-03-01T06:41:59;100922.13;;;-0.32;68.89
4022;BME280;2025;48.260;16.432;2023-03-01T06:44:27;100928.97;;;-0.31;68.58
4022;BME280;2025;48.260;16.432;2023-03-01T06:46:54;100935.63;;;-0.25;68.30
4022;BME280;2025;48.260;16.432;2023-03-01T06:49:20;100930.34;;;-0.24;68.33
4022;BME280;2025;48.260;16.432;2023-03-01T06:51:47;100925.72;;;-0.17;68.76
4022;BME280;2025;48.260;16.432;2023-03-01T06:54:14;100929.38;;;-0.21;68.29
4022;BME280;2025;48.260;16.432;2023-03-01T06:56:43;100930.13;;;-0.19;69.57
4022;BME280;2025;48.260;16.432;2023-03-01T06:59:11;100928.31;;;-0.17;68.51
4022;BME280;2025;48.260;16.432;2023-03-01T07:01:38;100927.28;;;-0.13;68.34
4022;BME280;2025;48.260;16.432;2023-03-01T07:04:05;100926.84;;;-0.04;67.16
4022;BME280;2025;48.260;16.432;2023-03-01T07:06:32;100923.31;;;-0.03;67.31
4022;BME280;2025;48.260;16.432;2023-03-01T07:08:59;100926.63;;;0.01;68.45
4022;BME280;2025;48.260;16.432;2023-03-01T07:11:26;100919.31;;;0.09;67.70
4022;BME280;2025;48.260;16.432;2023-03-01T07:13:53;100917.13;;;0.19;66.57
4022;BME280;2025;48.260;16.432;2023-03-01T07:16:22;100913.56;;;0.22;66.21
4022;BME280;2025;48.260;16.432;2023-03-01T07:18:49;100911.97;;;0.19;66.28
4022;BME280;2025;48.260;16.432;2023-03-01T07:21:15;100919.28;;;0.28;65.57
4022;BME280;2025;48.260;16.432;2023-03-01T07:23:43;100910.75;;;0.26;65.95
4022;BME280;2025;48.260;16.432;2023-03-01T07:26:09;100916.00;;;0.25;65.67
4022;BME280;2025;48.260;16.432;2023-03-01T07:28:36;100914.31;;;0.24;66.33
4022;BME280;2025;48.260;16.432;2023-03-01T07:31:05;100912.56;;;0.24;66.15
4022;BME280;2025;48.260;16.432;2023-03-01T07:33:33;100915.06;;;0.26;66.15
4022;BME280;2025;48.260;16.432;2023-03-01T07:36:02;100915.47;;;0.35;67.82
4022;BME280;2025;48.260;16.432;2023-03-01T07:38:29;100908.75;;;0.49;65.84
4022;BME280;2025;48.260;16.432;2023-03-01T07:40:58;100907.00;;;0.67;65.02
4022;BME280;2025;48.260;16.432;2023-03-01T07:43:25;100905.59;;;0.77;64.08
4022;BME280;2025;48.260;16.432;2023-03-01T07:45:52;100897.16;;;0.73;64.75
4022;BME280;2025;48.260;16.432;2023-03-01T07:48:19;100904.78;;;0.76;64.47
4022;BME280;2025;48.260;16.432;2023-03-01T07:50:47;100897.69;;;0.80;64.31
4022;BME280;2025;48.260;16.432;2023-03-01T07:53:14;100899.00;;;1.04;63.00
4022;BME280;2025;48.260;16.432;2023-03-01T07:55:41;100901.94;;;1.14;63.26
4022;BME280;2025;48.260;16.432;2023-03-01T07:58:08;100903.59;;;0.99;63.56
4022;BME280;2025;48.260;16.432;2023-03-01T08:00:34;100901.81;;;1.17;62.29
4022;BME280;2025;48.260;16.432;2023-03-01T08:03:02;100904.22;;;1.20;62.71
4022;BME280;2025;48.260;16.432;2023-03-01T08:05:29;100891.84;;;1.41;61.86
4022;BME280;2025;48.260;16.432;2023-03-01T08:07:57;100888.34;;;1.58;60.78
4022;BME280;2025;48.260;16.432;2023-03-01T08:10:24;100890.88;;;1.60;60.08
4022;BME280;2025;48.260;16.432;2023-03-01T08:12:52;100897.06;;;1.41;61.11
4022;BME280;2025;48.260;16.432;2023-03-01T08:15:19;100902.03;;;1.13;62.64
4022;BME280;2025;48.260;16.432;2023-03-01T08:17:48;100901.97;;;1.30;60.68
4022;BME280;2025;48.260;16.432;2023-03-01T08:20:16;100902.50;;;1.37;61.80
4022;BME280;2025;48.260;16.432;2023-03-01T08:22:43;100899.56;;;1.43;61.23
4022;BME280;2025;48.260;16.432;2023-03-01T08:25:11;100889.09;;;1.60;60.19
4022;BME280;2025;48.260;16.432;2023-03-01T08:27:38;100893.28;;;1.79;60.52
4022;BME280;2025;48.260;16.432;2023-03-01T08:30:07;100898.41;;;1.96;59.74
4022;BME280;2025;48.260;16.432;2023-03-01T08:32:38;100895.59;;;2.15;59.19
4022;BME280;2025;48.260;16.432;2023-03-01T08:35:05;100894.69;;;2.30;56.90
4022;BME280;2025;48.260;16.432;2023-03-01T08:37:32;100891.84;;;2.35;57.63
4022;BME280;2025;48.260;16.432;2023-03-01T08:40:00;100897.22;;;2.32;56.82
4022;BME280;2025;48.260;16.432;2023-03-01T08:42:28;100903.47;;;2.14;59.49
4022;BME280;2025;48.260;16.432;2023-03-01T08:44:55;100894.84;;;1.97;58.63
4022;BME280;2025;48.260;16.432;2023-03-01T08:47:22;100888.56;;;2.01;60.36
4022;BME280;2025;48.260;16.432;2023-03-01T08:49:49;100881.13;;;1.95;59.42
4022;BME280;2025;48.260;16.432;2023-03-01T08:52:17;100882.94;;;2.09;61.52
4022;BME280;2025;48.260;16.432;2023-03-01T08:54:44;100876.59;;;2.29;57.98
4022;BME280;2025;48.260;16.432;2023-03-01T08:57:12;100871.63;;;2.40;57.48
4022;BME280;2025;48.260;16.432;2023-03-01T08:59:40;100863.38;;;2.48;57.76
4022;BME280;2025;48.260;16.432;2023-03-01T09:02:12;100877.19;;;2.48;57.61
4022;BME280;2025;48.260;16.432;2023-03-01T09:04:40;100872.28;;;2.58;57.15
4022;BME280;2025;48.260;16.432;2023-03-01T09:07:07;100866.06;;;2.61;56.56
4022;BME280;2025;48.260;16.432;2023-03-01T09:09:35;100865.13;;;2.47;56.61
4022;BME280;2025;48.260;16.432;2023-03-01T09:12:03;100864.06;;;2.66;56.71
4022;BME280;2025;48.260;16.432;2023-03-01T09:14:30;100852.34;;;2.73;58.14
4022;BME280;2025;48.260;16.432;2023-03-01T09:16:59;100848.81;;;2.88;55.85
4022;BME280;2025;48.260;16.432;2023-03-01T09:19:28;100846.03;;;3.06;56.34
4022;BME280;2025;48.260;16.432;2023-03-01T09:21:55;100838.66;;;3.27;55.10
4022;BME280;2025;48.260;16.432;2023-03-01T09:24:24;100837.06;;;3.38;54.39
4022;BME280;2025;48.260;16.432;2023-03-01T09:26:53;100832.28;;;3.45;54.91
4022;BME280;2025;48.260;16.432;2023-03-01T09:29:21;100834.44;;;3.66;55.91
4022;BME280;2025;48.260;16.432;2023-03-01T09:31:49;100833.56;;;3.79;54.59
4022;BME280;2025;48.260;16.432;2023-03-01T09:34:17;100827.19;;;4.11;54.26
4022;BME280;2025;48.260;16.432;2023-03-01T09:36:49;100830.41;;;4.14;52.60
4022;BME280;2025;48.260;16.432;2023-03-01T09:39:17;100826.47;;;4.09;52.41
4022;BME280;2025;48.260;16.432;2023-03-01T09:41:49;100829.72;;;4.38;51.33
4022;BME280;2025;48.260;16.432;2023-03-01T09:44:28;100828.38;;;4.32;50.89
4022;BME280;2025;48.260;16.432;2023-03-01T09:46:57;100827.25;;;4.36;50.86
4022;BME280;2025;48.260;16.432;2023-03-01T09:49:28;100817.75;;;4.48;50.97
4022;BME280;2025;48.260;16.432;2023-03-01T09:52:00;100814.81;;;4.40;51.80
4022;BME280;2025;48.260;16.432;2023-03-01T09:54:30;100810.09;;;4.45;50.47
4022;BME280;2025;48.260;16.432;2023-03-01T09:57:17;100809.16;;;4.33;50.58
4022;BME280;2025;48.260;16.432;2023-03-01T10:02:41;100805.84;;;4.44;50.59
4022;BME280;2025;48.260;16.432;2023-03-01T10:05:33;100802.41;;;4.56;49.90
4022;BME280;2025;48.260;16.432;2023-03-01T10:08:34;100803.31;;;4.81;49.23
4022;BME280;2025;48.260;16.432;2023-03-01T10:11:04;100798.53;;;4.88;48.79
4022;BME280;2025;48.260;16.432;2023-03-01T10:13:43;100787.13;;;4.89;48.31
4022;BME280;2025;48.260;16.432;2023-03-01T10:16:17;100789.72;;;5.01;48.74
4022;BME280;2025;48.260;16.432;2023-03-01T10:18:53;100783.97;;;5.33;47.71
4022;BME280;2025;48.260;16.432;2023-03-01T10:21:22;100778.78;;;5.68;46.75
4022;BME280;2025;48.260;16.432;2023-03-01T10:23:50;100776.13;;;5.81;47.35
4022;BME280;2025;48.260;16.432;2023-03-01T10:26:33;100774.53;;;5.67;46.62
4022;BME280;2025;48.260;16.432;2023-03-01T10:29:04;100776.47;;;5.77;46.54
4022;BME280;2025;48.260;16.432;2023-03-01T10:31:39;100773.00;;;6.00;45.95
4022;BME280;2025;48.260;16.432;2023-03-01T10:34:12;100770.63;;;5.73;47.96
4022;BME280;2025;48.260;16.432;2023-03-01T10:36:42;100764.97;;;5.90;46.47
4022;BME280;2025;48.260;16.432;2023-03-01T10:39:17;100763.03;;;6.05;45.66
4022;BME280;2025;48.260;16.432;2023-03-01T10:41:56;100762.25;;;5.92;48.95
4022;BME280;2025;48.260;16.432;2023-03-01T10:44:37;100753.19;;;6.31;47.92
4022;BME280;2025;48.260;16.432;2023-03-01T10:47:04;100756.44;;;6.58;45.14
4022;BME280;2025;48.260;16.432;2023-03-01T10:49:32;100758.44;;;6.43;46.20
4022;BME280;2025;48.260;16.432;2023-03-01T10:52:16;100750.31;;;5.77;47.92
4022;BME280;2025;48.260;16.432;2023-03-01T10:54:52;100740.38;;;5.93;48.30
4022;BME280;2025;48.260;16.432;2023-03-01T10:57:34;100731.66;;;6.73;47.05
4022;BME280;2025;48.260;16.432;2023-03-01T11:00:22;100729.50;;;7.44;45.01
4022;BME280;2025;48.260;16.432;2023-03-01T11:03:01;100725.53;;;8.13;43.86
4022;BME280;2025;48.260;16.432;2023-03-01T11:05:30;100709.34;;;9.00;40.00
4022;BME280;2025;48.260;16.432;2023-03-01T11:08:02;100698.16;;;9.27;39.13
4022;BME280;2025;48.260;16.432;2023-03-01T11:10:30;100702.84;;;9.53;38.71
4022;BME280;2025;48.260;16.432;2023-03-01T11:13:07;100693.28;;;9.03;41.49
4022;BME280;2025;48.260;16.432;2023-03-01T11:15:35;100691.38;;;9.34;39.00
4022;BME280;2025;48.260;16.432;2023-03-01T11:18:02;100684.44;;;9.14;40.26
4022;BME280;2025;48.260;16.432;2023-03-01T11:20:31;100684.97;;;8.88;40.18
4022;BME280;2025;48.260;16.432;2023-03-01T11:23:03;100686.94;;;8.55;40.99
4022;BME280;2025;48.260;16.432;2023-03-01T11:25:35;100683.28;;;8.68;40.76
4022;BME280;2025;48.260;16.432;2023-03-01T11:28:05;100680.75;;;8.56;41.46
4022;BME280;2025;48.260;16.432;2023-03-01T11:30:36;100691.16;;;8.37;41.75
4022;BME280;2025;48.260;16.432;2023-03-01T11:33:13;100683.72;;;8.11;42.74
4022;BME280;2025;48.260;16.432;2023-03-01T11:35:49;100691.03;;;7.66;43.13
4022;BME280;2025;48.260;16.432;2023-03-01T11:38:23;100688.06;;;8.01;43.21
4022;BME280;2025;48.260;16.432;2023-03-01T11:40:54;100680.06;;;8.33;42.50
4022;BME280;2025;48.260;16.432;2023-03-01T11:43:33;100682.13;;;8.30;42.30
4022;BME280;2025;48.260;16.432;2023-03-01T11:46:35;100677.00;;;7.97;46.18
4022;BME280;2025;48.260;16.432;2023-03-01T11:49:25;;;;9.02;
4022;BME280;2025;48.260;16.432;2023-03-01T11:52:04;100678.22;;;9.05;41.37
4022;BME280;2025;48.260;16.432;2023-03-01T11:54:46;100683.88;;;8.19;41.32
4022;BME280;2025;48.260;16.432;2023-03-01T11:57:31;100687.97;;;7.60;43.03
4022;BME280;2025;48.260;16.432;2023-03-01T12:00:18;100675.66;;;7.40;44.35
4022;BME280;2025;48.260;16.432;2023-03-01T12:02:59;100673.25;;;7.16;45.11
4022;BME280;2025;48.260;16.432;2023-03-01T12:08:18;100677.41;;;7.51;44.47
4022;BME280;2025;48.260;16.432;2023-03-01T12:10:57;100677.13;;;7.54;44.28
4022;BME280;2025;48.260;16.432;2023-03-01T12:13:53;100687.94;;;7.07;46.19
4022;BME280;2025;48.260;16.432;2023-03-01T12:16:45;100677.56;;;7.06;45.59
4022;BME280;2025;48.260;16.432;2023-03-01T12:19:36;100669.84;;;7.04;46.24
4022;BME280;2025;48.260;16.432;2023-03-01T12:22:25;100671.25;;;7.41;45.69
4022;BME280;2025;48.260;16.432;2023-03-01T12:25:07;100667.88;;;7.71;44.73
4022;BME280;2025;48.260;16.432;2023-03-01T12:27:59;100662.78;;;7.69;45.45
4022;BME280;2025;48.260;16.432;2023-03-01T12:30:39;100657.38;;;7.71;46.24
4022;BME280;2025;48.260;16.432;2023-03-01T12:33:23;100641.78;;;7.69;45.09
4022;BME280;2025;48.260;16.432;2023-03-01T12:38:48;100660.38;;;7.66;45.49
4022;BME280;2025;48.260;16.432;2023-03-01T12:41:31;100651.31;;;7.70;45.01
4022;BME280;2025;48.260;16.432;2023-03-01T12:44:11;100645.94;;;7.72;45.19
4022;BME280;2025;48.260;16.432;2023-03-01T12:46:55;100644.59;;;7.77;44.97
4022;BME280;2025;48.260;16.432;2023-03-01T12:49:29;100640.31;;;7.76;45.46
4022;BME280;2025;48.260;16.432;2023-03-01T12:52:00;100645.09;;;7.71;46.09
4022;BME280;2025;48.260;16.432;2023-03-01T12:54:30;100643.38;;;7.81;45.79
4022;BME280;2025;48.260;16.432;2023-03-01T12:57:02;100647.84;;;7.91;46.75
4022;BME280;2025;48.260;16.432;2023-03-01T12:59:39;100642.91;;;7.97;46.82
4022;BME280;2025;48.260;16.432;2023-03-01T13:02:15;100638.13;;;8.12;45.63
4022;BME280;2025;48.260;16.432;2023-03-01T13:04:57;100628.03;;;8.08;45.02
4022;BME280;2025;48.260;16.432;2023-03-01T13:07:32;100625.69;;;8.05;45.36
4022;BME280;2025;48.260;16.432;2023-03-01T13:10:10;100623.50;;;8.50;44.51
4022;BME280;2025;48.260;16.432;2023-03-01T13:12:43;100617.91;;;8.74;44.16
4022;BME280;2025;48.260;16.432;2023-03-01T13:15:30;100613.50;;;9.23;43.18
4022;BME280;2025;48.260;16.432;2023-03-01T13:17:58;100610.25;;;9.59;43.98
4022;BME280;2025;48.260;16.432;2023-03-01T13:20:31;100609.69;;;9.55;42.30
4022;BME280;2025;48.260;16.432;2023-03-01T13:23:07;100614.56;;;9.40;42.33
4022;BME280;2025;48.260;16.432;2023-03-01T13:26:03;100614.47;;;8.93;43.57
4022;BME280;2025;48.260;16.432;2023-03-01T13:28:55;100616.91;;;8.65;44.38
4022;BME280;2025;48.260;16.432;2023-03-01T13:31:59;100616.03;;;8.46;45.24
4022;BME280;2025;48.260;16.432;2023-03-01T13:35:02;100615.94;;;8.26;45.89